Time;durP1;ratioP1;P1;durP2;ratioP2;P2;SDS_P1;SDS_P2;PMS_P1;PMS_P2;Temp;Humidity;BMP_temperature;BMP_pressure;BME280_temperature;BME280_humidity;BME280_pressure;Samples;Min_cycle;Max_cycle;Signal;HPM_P1;HPM_P2
2021/08/10 00:00:16;;;;;;;13.95;10.23;;;;;;;18.61;92.40;97924.53;1808214;78;21028;-81
2021/08/10 00:02:44;;;;;;;10.55;9.40;;;;;;;18.57;94.08;97926.53;1807975;79;21043;-81
2021/08/10 00:05:11;;;;;;;12.78;8.78;;;;;;;18.59;92.70;97923.75;1808313;79;21482;-81
2021/08/10 00:07:37;;;;;;;12.88;9.20;;;;;;;18.61;92.22;97921.85;1808197;79;21400;-81
2021/08/10 00:10:06;;;;;;;12.60;8.20;;;;;;;18.62;92.44;97920.89;1808290;79;21023;-81
2021/08/10 00:12:33;;;;;;;11.70;8.43;;;;;;;18.61;93.22;97920.52;1808413;79;21455;-81
2021/08/10 00:15:00;;;;;;;11.40;7.72;;;;;;;18.63;92.42;97920.42;1808099;78;21394;-81
2021/08/10 00:17:26;;;;;;;8.50;7.70;;;;;;;18.63;93.04;97921.77;1808303;79;21047;-82
2021/08/10 00:19:53;;;;;;;12.20;8.25;;;;;;;18.63;92.81;97924.45;1808336;79;21030;-81
2021/08/10 00:22:19;;;;;;;10.72;8.00;;;;;;;18.60;93.64;97922.78;1805566;79;21046;-81
2021/08/10 00:24:46;;;;;;;11.78;7.70;;;;;;;18.57;92.83;97921.16;1808157;79;20991;-81
2021/08/10 00:27:15;;;;;;;14.38;8.20;;;;;;;18.56;93.28;97926.16;1808276;79;20988;-81
2021/08/10 00:29:43;;;;;;;8.73;7.85;;;;;;;18.56;92.69;97922.63;1808097;79;21500;-81
2021/08/10 00:32:11;;;;;;;11.63;8.23;;;;;;;18.57;92.18;97925.69;1808384;79;20983;-81
2021/08/10 00:34:38;;;;;;;11.20;8.00;;;;;;;18.54;93.12;97924.06;1808260;79;21007;-81
2021/08/10 00:37:06;;;;;;;9.98;7.90;;;;;;;18.55;92.30;97924.91;1808094;79;21023;-81
2021/08/10 00:39:35;;;;;;;13.40;8.70;;;;;;;18.49;93.95;97928.86;1805440;79;21063;-81
2021/08/10 00:42:03;;;;;;;10.13;7.58;;;;;;;18.49;92.37;97926.64;1804465;79;21445;-81
2021/08/10 00:44:30;;;;;;;9.90;7.67;;;;;;;18.51;92.64;97927.42;1772825;79;21048;-81
2021/08/10 00:46:57;;;;;;;12.45;7.80;;;;;;;18.49;92.42;97923.95;1772854;79;21047;-81
2021/08/10 00:49:23;;;;;;;8.45;7.30;;;;;;;18.50;91.93;97920.31;1772852;79;21440;-81
2021/08/10 00:51:52;;;;;;;10.55;7.10;;;;;;;18.49;92.14;97926.64;1803545;79;21102;-81
2021/08/10 00:54:19;;;;;;;8.35;7.53;;;;;;;18.49;91.60;97926.17;1804424;79;21413;-81
2021/08/10 00:56:48;;;;;;;10.05;7.22;;;;;;;18.49;91.60;97929.33;1804623;79;21004;-81
2021/08/10 00:59:16;;;;;;;9.65;7.87;;;;;;;18.46;91.61;97924.55;1803915;79;21508;-82
2021/08/10 01:01:45;;;;;;;10.82;7.90;;;;;;;18.40;91.76;97926.75;1803927;79;21043;-81
2021/08/10 01:04:11;;;;;;;8.60;7.70;;;;;;;18.37;91.73;97928.28;1804532;79;20983;-82
2021/08/10 01:07:09;;;;;;;10.03;8.23;;;;;;;18.38;91.39;97929.99;1804631;79;21035;-82
2021/08/10 01:09:49;;;;;;;10.88;8.50;;;;;;;18.36;91.12;97930.58;1804281;79;21027;-81
2021/08/10 01:12:43;;;;;;;10.72;8.30;;;;;;;18.29;91.31;97928.76;1804565;79;21477;-81
2021/08/10 01:15:21;;;;;;;11.55;7.97;;;;;;;18.26;92.10;97928.97;1804806;79;20988;-81
2021/08/10 01:18:08;;;;;;;12.40;8.38;;;;;;;18.20;91.55;97926.18;1772690;79;21007;-81
2021/08/10 01:21:17;;;;;;;10.13;8.28;;;;;;;18.14;92.01;97919.86;1799909;79;21039;-81
2021/08/10 01:23:50;;;;;;;8.98;8.05;;;;;;;18.09;91.32;97923.31;1802782;79;21056;-81
2021/08/10 01:26:47;;;;;;;12.95;8.85;;;;;;;18.03;92.32;97918.64;1804774;79;21346;-81
2021/08/10 01:29:37;;;;;;;9.63;8.63;;;;;;;18.00;90.83;97924.22;1804658;79;21428;-81
2021/08/10 01:32:05;;;;;;;13.35;8.93;;;;;;;17.98;91.06;97926.61;1804263;79;21008;-81
2021/08/10 01:34:43;;;;;;;10.65;9.50;;;;;;;17.94;90.74;97924.10;1804543;79;20964;-81
2021/08/10 01:37:17;;;;;;;11.22;10.00;;;;;;;17.88;91.35;97925.83;1802747;79;21461;-81
2021/08/10 01:39:50;;;;;;;12.40;9.25;;;;;;;17.85;90.97;97924.66;1804029;79;21083;-81
2021/08/10 01:42:18;;;;;;;11.28;9.75;;;;;;;17.84;90.74;97921.60;1804505;79;21023;-81
2021/08/10 01:44:47;;;;;;;10.58;9.33;;;;;;;17.80;90.76;97926.77;1804650;79;20948;-81
2021/08/10 01:47:15;;;;;;;12.20;9.70;;;;;;;17.74;90.32;97923.12;1804527;79;21012;-81
2021/08/10 01:49:43;;;;;;;11.63;9.03;;;;;;;17.69;90.62;97927.43;1804637;79;21031;-81
2021/08/10 01:52:19;;;;;;;10.40;9.28;;;;;;;17.66;90.46;97922.24;1774032;79;21059;-81
2021/08/10 01:54:49;;;;;;;10.98;8.45;;;;;;;17.67;90.98;97931.53;1772872;81;21457;-81
2021/08/10 01:57:19;;;;;;;8.83;7.92;;;;;;;17.66;90.58;97920.91;1794799;80;21385;-81
2021/08/10 01:59:50;;;;;;;9.50;7.60;;;;;;;17.62;91.00;97910.85;1791901;80;21002;-81
2021/08/10 02:02:17;;;;;;;11.22;7.78;;;;;;;17.61;91.14;97910.94;1764420;81;21461;-81
2021/08/10 02:04:47;;;;;;;10.38;7.75;;;;;;;17.62;91.25;97907.30;1792129;80;21012;-81
2021/08/10 02:07:14;;;;;;;8.55;7.12;;;;;;;17.62;91.90;97914.88;1764238;81;21059;-81
2021/08/10 02:09:42;;;;;;;8.23;7.40;;;;;;;17.64;91.52;97914.28;1792030;80;21006;-81
2021/08/10 02:12:10;;;;;;;8.53;6.37;;;;;;;17.65;91.97;97915.16;1764415;81;21012;-81
2021/08/10 02:14:39;;;;;;;9.25;7.33;;;;;;;17.64;92.88;97913.41;1794710;80;20976;-81
2021/08/10 02:17:08;;;;;;;8.03;6.97;;;;;;;17.67;91.72;97914.58;1791804;80;20996;-81
2021/08/10 02:19:37;;;;;;;8.95;7.22;;;;;;;17.70;91.98;97914.41;1764549;80;21429;-81
2021/08/10 02:22:08;;;;;;;7.67;6.50;;;;;;;17.71;91.67;97909.42;1792078;80;20999;-81
2021/08/10 02:24:47;;;;;;;8.50;6.83;;;;;;;17.71;91.58;97911.23;1764466;81;20980;-82
2021/08/10 02:27:20;;;;;;;9.53;7.53;;;;;;;17.67;91.42;97911.44;1792012;80;21039;-81
2021/08/10 02:29:50;;;;;;;9.45;7.25;;;;;;;17.69;91.49;97910.01;1763913;81;21043;-81
2021/08/10 02:32:25;;;;;;;10.75;6.80;;;;;;;17.68;91.54;97917.64;1760947;80;20983;-82
2021/08/10 02:34:53;;;;;;;10.40;7.03;;;;;;;17.65;92.12;97915.16;1791984;80;20948;-82
2021/08/10 02:37:22;;;;;;;8.73;6.90;;;;;;;17.64;91.35;97914.28;1764268;81;21045;-82
2021/08/10 02:39:51;;;;;;;8.73;7.47;;;;;;;17.64;91.96;97917.43;1791875;80;21401;-82
2021/08/10 02:42:24;;;;;;;8.10;7.22;;;;;;;17.64;91.98;97918.30;1765634;80;21600;-82
2021/08/10 02:44:52;;;;;;;9.33;7.10;;;;;;;17.64;91.61;97913.41;1764331;81;20957;-82
2021/08/10 02:47:20;;;;;;;7.58;6.78;;;;;;;17.64;91.27;97918.77;1791940;80;20971;-81
2021/08/10 02:49:47;;;;;;;10.48;7.33;;;;;;;17.65;91.23;97919.18;1766778;80;20991;-81
2021/08/10 02:52:13;;;;;;;13.35;7.90;;;;;;;17.65;91.19;97924.05;1795331;80;21484;-81
2021/08/10 02:54:41;;;;;;;8.85;7.47;;;;;;;17.59;91.00;97924.42;1824369;79;20972;-81
2021/08/10 02:57:16;;;;;;;11.28;7.33;;;;;;;17.55;90.82;97923.75;1824159;78;20999;-81
2021/08/10 02:59:50;;;;;;;17.80;7.40;;;;;;;17.54;90.48;97927.85;1824264;79;20976;-82
2021/08/10 03:02:21;;;;;;;13.45;7.90;;;;;;;17.44;91.06;97926.17;1787619;79;21015;-82
2021/08/10 03:05:04;;;;;;;11.33;8.25;;;;;;;17.38;90.73;97930.10;1824191;79;20945;-82
2021/08/10 03:07:32;;;;;;;12.83;8.70;;;;;;;17.33;91.53;97928.63;1824476;79;21079;-81
2021/08/10 03:10:03;;;;;;;10.82;9.23;;;;;;;17.28;90.98;97929.76;1824017;79;21019;-81
2021/08/10 03:12:35;;;;;;;10.88;7.72;;;;;;;17.24;91.35;97928.70;1824222;79;21037;-81
2021/08/10 03:15:03;;;;;;;8.98;8.08;;;;;;;17.12;92.97;97932.95;1824198;78;21406;-81
2021/08/10 03:17:35;;;;;;;10.00;7.72;;;;;;;17.11;91.77;97932.57;1824017;78;20961;-81
2021/08/10 03:20:05;;;;;;;8.58;7.25;;;;;;;17.10;91.71;97933.50;1814512;79;21046;-81
2021/08/10 03:22:34;;;;;;;7.80;6.92;;;;;;;17.06;92.61;97932.81;1764191;81;21012;-81
2021/08/10 03:25:03;;;;;;;9.33;7.28;;;;;;;17.05;92.34;97934.23;1791854;80;21374;-81
2021/08/10 03:27:32;;;;;;;9.05;7.20;;;;;;;17.06;92.12;97938.66;1764158;81;21039;-81
2021/08/10 03:30:04;;;;;;;10.00;6.92;;;;;;;17.08;92.04;97938.09;1792043;80;21368;-81
2021/08/10 03:32:34;;;;;;;8.23;7.20;;;;;;;17.12;92.51;97939.64;1764323;81;21499;-81
2021/08/10 03:35:03;;;;;;;10.72;7.28;;;;;;;17.16;91.73;97939.86;1794783;80;22116;-81
2021/08/10 03:37:32;;;;;;;9.20;6.72;;;;;;;17.21;92.04;97941.80;1791993;80;20984;-81
2021/08/10 03:40:00;;;;;;;11.20;7.03;;;;;;;17.23;92.54;97943.89;1764074;80;21060;-80
2021/08/10 03:42:28;;;;;;;8.25;6.75;;;;;;;17.20;92.36;97944.55;1791886;80;21015;-81
2021/08/10 03:44:56;;;;;;;9.00;6.33;;;;;;;17.18;92.63;97947.31;1764153;81;21020;-81
2021/08/10 03:47:23;;;;;;;9.88;6.75;;;;;;;17.21;91.96;97950.30;1794756;80;20956;-80
2021/08/10 03:49:54;;;;;;;10.08;6.72;;;;;;;17.22;91.62;97955.56;1791471;80;21027;-81
2021/08/10 03:52:21;;;;;;;10.82;6.92;;;;;;;17.19;92.05;97953.55;1762524;81;20991;-80
2021/08/10 03:54:48;;;;;;;9.43;6.80;;;;;;;17.15;92.14;97955.55;1762726;81;21007;-81
2021/08/10 03:57:19;;;;;;;10.88;7.00;;;;;;;17.16;91.76;97955.93;1790233;80;21010;-81
2021/08/10 03:59:51;;;;;;;8.08;7.17;;;;;;;17.16;91.44;97966.64;1790173;80;20982;-81
2021/08/10 04:02:19;;;;;;;12.10;7.53;;;;;;;17.09;92.15;97965.25;1790231;80;21527;-80
2021/08/10 04:04:51;;;;;;;10.72;8.08;;;;;;;17.07;92.19;97967.16;1790205;80;21036;-81
2021/08/10 04:07:20;;;;;;;8.20;7.40;;;;;;;17.02;92.08;97970.05;1790119;80;20998;-81
2021/08/10 04:09:48;;;;;;;10.48;7.97;;;;;;;17.00;92.50;97969.28;1761509;80;21037;-81
2021/08/10 04:12:16;;;;;;;12.50;6.95;;;;;;;16.97;92.45;97978.81;1790092;80;21034;-81
2021/08/10 04:14:44;;;;;;;10.98;7.60;;;;;;;16.90;93.12;97982.30;1791009;80;20974;-80
2021/08/10 04:17:13;;;;;;;9.18;7.90;;;;;;;16.91;92.15;97974.69;1790083;80;21017;-80
2021/08/10 04:19:45;;;;;;;9.80;8.20;;;;;;;16.91;92.76;97973.81;1791800;79;20979;-81
2021/08/10 04:22:09;;;;;;;9.78;8.45;;;;;;;16.88;92.91;97978.86;1773642;80;20988;-81
2021/08/10 04:24:36;;;;;;;14.38;8.58;;;;;;;16.89;92.58;97974.77;1764288;81;20996;-81
2021/08/10 04:27:03;;;;;;;9.08;8.18;;;;;;;16.85;93.62;97973.67;1791807;80;20976;-81
2021/08/10 04:29:30;;;;;;;9.75;8.13;;;;;;;16.88;92.95;97975.72;1764149;81;21023;-80
2021/08/10 04:31:56;;;;;;;9.38;7.80;;;;;;;16.93;92.43;97971.44;1794536;80;21014;-80
2021/08/10 04:34:23;;;;;;;15.35;7.55;;;;;;;16.98;92.68;97964.50;1791919;80;20928;-81
2021/08/10 04:36:49;;;;;;;9.28;7.08;;;;;;;17.05;92.61;97962.34;1764196;81;21433;-81
2021/08/10 04:39:16;;;;;;;10.23;8.03;;;;;;;17.11;92.73;97973.58;1791821;80;20972;-81
2021/08/10 04:41:43;;;;;;;13.43;6.80;;;;;;;17.15;92.47;97972.95;1763917;81;21016;-81
2021/08/10 04:44:11;;;;;;;14.47;7.35;;;;;;;17.21;92.31;97978.41;1791958;80;20942;-81
2021/08/10 04:46:38;;;;;;;11.53;7.20;;;;;;;17.27;91.76;97974.91;1764168;81;20996;-80
2021/08/10 04:49:05;;;;;;;9.38;6.72;;;;;;;17.30;91.74;97980.56;1791913;80;20939;-81
2021/08/10 04:51:32;;;;;;;9.33;8.28;;;;;;;17.31;91.27;97974.75;1766122;80;21453;-80
2021/08/10 04:53:59;;;;;;;9.03;7.15;;;;;;;17.36;91.18;97969.49;1791847;80;20979;-81
2021/08/10 04:56:26;;;;;;;9.15;6.45;;;;;;;17.41;91.28;97967.91;1764154;81;21103;-81
2021/08/10 04:58:52;;;;;;;9.68;7.03;;;;;;;17.47;90.93;97982.27;1790796;79;21407;-81
2021/08/10 05:01:19;;;;;;;9.70;6.62;;;;;;;17.54;90.68;97978.77;1762606;81;20960;-81
2021/08/10 05:03:46;;;;;;;9.80;6.80;;;;;;;17.62;90.50;97974.29;1813937;79;20958;-80
2021/08/10 05:06:13;;;;;;;7.83;6.80;;;;;;;17.70;90.34;97973.83;1824226;79;20958;-80
2021/08/10 05:08:40;;;;;;;12.03;7.25;;;;;;;17.76;90.08;97973.00;1824257;79;21004;-80
2021/08/10 05:11:12;;;;;;;7.87;6.90;;;;;;;17.84;89.90;97979.23;1824054;79;21005;-80
2021/08/10 05:13:41;;;;;;;8.08;6.80;;;;;;;17.93;89.68;97976.01;1824181;79;21464;-81
2021/08/10 05:16:09;;;;;;;7.58;6.72;;;;;;;18.00;89.35;97979.19;1824308;79;20966;-81
2021/08/10 05:18:36;;;;;;;14.05;6.45;;;;;;;18.05;89.27;97973.53;1824149;79;21028;-81
2021/08/10 05:21:03;;;;;;;12.13;7.50;;;;;;;18.04;88.93;97983.41;1822904;79;21001;-81
2021/08/10 05:23:35;;;;;;;9.88;7.45;;;;;;;18.09;88.95;97980.47;1823795;79;20942;-81
2021/08/10 05:26:02;;;;;;;10.63;7.60;;;;;;;18.13;88.87;97975.77;1824147;79;21016;-81
2021/08/10 05:28:30;;;;;;;10.88;7.42;;;;;;;18.19;88.84;97983.47;1824167;79;20993;-81
2021/08/10 05:30:59;;;;;;;14.68;10.28;;;;;;;18.22;89.11;97984.60;1824017;79;21387;-81
2021/08/10 05:33:26;;;;;;;12.00;8.20;;;;;;;18.28;89.22;97978.89;1824114;79;20970;-80
2021/08/10 05:35:52;;;;;;;8.70;7.40;;;;;;;18.34;89.25;97974.94;1824139;79;20998;-81
2021/08/10 05:38:19;;;;;;;9.23;7.65;;;;;;;18.40;89.14;97978.58;1794200;79;21352;-81
2021/08/10 05:40:47;;;;;;;9.93;8.00;;;;;;;18.47;88.84;97977.25;1823766;79;21009;-81
2021/08/10 05:43:14;;;;;;;9.48;7.50;;;;;;;18.54;89.02;97968.34;1823962;79;21049;-81
2021/08/10 05:45:41;;;;;;;9.83;7.10;;;;;;;18.60;89.03;97961.23;1811490;79;20943;-81
2021/08/10 05:48:10;;;;;;;9.03;6.90;;;;;;;18.68;88.55;97962.09;1824146;79;21009;-81
2021/08/10 05:50:38;;;;;;;12.07;7.05;;;;;;;18.76;87.80;97964.78;1794672;79;21029;-81
2021/08/10 05:53:04;;;;;;;8.03;6.58;;;;;;;18.84;87.43;97961.98;1824285;79;21060;-81
2021/08/10 05:55:31;;;;;;;9.40;7.15;;;;;;;18.96;86.82;97964.36;1824401;79;21487;-81
2021/08/10 05:57:58;;;;;;;7.83;7.00;;;;;;;19.05;86.75;97954.86;1824377;79;20986;-81
2021/08/10 06:00:25;;;;;;;8.35;6.15;;;;;;;19.13;85.97;97960.61;1824237;79;21018;-81
2021/08/10 06:02:56;;;;;;;13.35;6.45;;;;;;;19.23;86.23;97967.56;1824224;79;21002;-81
2021/08/10 06:05:23;;;;;;;19.62;14.25;;;;;;;19.35;85.36;97976.64;1824224;79;20962;-81
2021/08/10 06:07:49;;;;;;;11.10;7.20;;;;;;;19.44;85.50;97964.45;1824463;78;20969;-81
2021/08/10 06:10:16;;;;;;;8.20;6.78;;;;;;;19.56;84.72;97965.92;1807812;79;20958;-81
2021/08/10 06:12:44;;;;;;;9.35;6.25;;;;;;;19.68;85.02;97953.48;1824517;79;20978;-81
2021/08/10 06:15:12;;;;;;;9.50;6.12;;;;;;;19.78;84.10;97967.55;1804773;79;20980;-81
2021/08/10 06:17:38;;;;;;;9.38;6.40;;;;;;;19.90;83.53;97971.20;1757366;82;21027;-81
2021/08/10 06:20:08;;;;;;;12.30;6.58;;;;;;;20.02;83.14;97970.88;1730314;82;21414;-81
2021/08/10 06:22:37;;;;;;;9.90;5.90;;;;;;;20.13;83.47;97968.80;1757286;82;21038;-81
2021/08/10 06:25:05;;;;;;;11.60;5.95;;;;;;;20.26;82.55;97972.83;1730805;83;21032;-81
2021/08/10 06:27:31;;;;;;;9.40;6.70;;;;;;;20.39;83.08;97963.91;1757286;82;21003;-81
2021/08/10 06:29:58;;;;;;;15.45;6.90;;;;;;;20.49;81.98;97966.80;1730687;82;20985;-81
2021/08/10 06:32:24;;;;;;;11.80;6.03;;;;;;;20.58;81.83;97964.80;1757265;82;21456;-81
2021/08/10 06:34:51;;;;;;;8.33;6.05;;;;;;;20.65;81.76;97966.09;1730679;82;21371;-81
2021/08/10 06:37:19;;;;;;;10.43;6.53;;;;;;;20.75;81.42;97974.86;1756426;82;20996;-81
2021/08/10 06:39:45;;;;;;;9.45;6.70;;;;;;;20.83;80.83;97973.80;1730530;82;21462;-81
2021/08/10 06:42:12;;;;;;;10.75;6.53;;;;;;;20.91;81.01;97970.11;1758346;82;21102;-81
2021/08/10 06:44:39;;;;;;;9.33;6.03;;;;;;;20.96;80.04;97970.63;1765277;79;20959;-81
2021/08/10 06:47:07;;;;;;;8.68;6.28;;;;;;;21.04;80.36;97973.23;1804718;79;20983;-81
2021/08/10 06:49:34;;;;;;;9.45;6.70;;;;;;;21.13;80.61;97975.26;1805234;79;20988;-82
2021/08/10 06:52:01;;;;;;;9.28;6.95;;;;;;;21.20;79.93;97962.20;1805151;79;21147;-82
2021/08/10 06:54:29;;;;;;;8.68;6.92;;;;;;;21.28;80.05;97964.32;1805073;79;20972;-82
2021/08/10 06:56:56;;;;;;;8.93;6.80;;;;;;;21.34;79.37;97962.53;1805089;79;21026;-82
2021/08/10 06:59:24;;;;;;;7.37;6.42;;;;;;;21.42;79.13;97966.00;1805128;79;21026;-82
2021/08/10 07:01:51;;;;;;;9.65;6.40;;;;;;;21.50;78.46;97963.09;1804236;79;21047;-82
2021/08/10 07:04:18;;;;;;;9.20;7.05;;;;;;;21.59;78.21;97958.84;1805036;79;20959;-81
2021/08/10 07:06:44;;;;;;;9.90;7.08;;;;;;;21.67;78.57;97956.90;1805088;79;21006;-81
2021/08/10 07:09:12;;;;;;;11.60;7.25;;;;;;;21.74;78.61;97957.33;1804872;79;21083;-81
2021/08/10 07:11:46;;;;;;;9.00;6.78;;;;;;;21.84;78.27;97958.84;1804995;79;22121;-81
2021/08/10 07:14:13;;;;;;;10.03;6.47;;;;;;;21.97;78.20;97949.31;1799257;79;21028;-81
2021/08/10 07:16:45;;;;;;;11.40;6.65;;;;;;;22.08;77.89;97954.73;1795524;80;21396;-82
2021/08/10 07:19:15;;;;;;;13.15;6.60;;;;;;;22.21;77.90;97953.78;1795613;80;20975;-82
2021/08/10 07:21:43;;;;;;;9.40;6.47;;;;;;;22.35;77.05;97950.86;1772947;81;21027;-82
2021/08/10 07:24:15;;;;;;;8.35;6.75;;;;;;;22.50;77.60;97946.57;1794233;80;20975;-82
2021/08/10 07:26:43;;;;;;;9.45;5.72;;;;;;;22.65;76.54;97952.59;1773034;81;20988;-82
2021/08/10 07:29:09;;;;;;;9.93;6.58;;;;;;;22.78;77.52;97946.58;1795657;80;20952;-82
2021/08/10 07:31:36;;;;;;;9.05;6.30;;;;;;;22.89;76.92;97944.84;1772961;81;21374;-83
2021/08/10 07:34:04;;;;;;;6.95;5.50;;;;;;;23.01;77.00;97945.21;1795379;79;21039;-82
2021/08/10 07:36:32;;;;;;;6.78;5.47;;;;;;;23.14;75.70;97944.19;1795675;80;20975;-82
2021/08/10 07:39:00;;;;;;;9.98;5.60;;;;;;;23.28;72.52;97941.67;1773080;81;21008;-82
2021/08/10 07:41:26;;;;;;;6.80;5.97;;;;;;;23.42;73.20;97945.48;1792933;80;21039;-83
2021/08/10 07:43:53;;;;;;;7.58;6.22;;;;;;;23.54;73.28;97939.53;1768802;80;21012;-83
2021/08/10 07:46:19;;;;;;;7.00;5.83;;;;;;;23.68;71.70;97941.57;1795030;80;20960;-83
2021/08/10 07:48:46;;;;;;;7.20;6.20;;;;;;;23.74;70.78;97928.86;1824286;78;21013;-83
2021/08/10 07:51:13;;;;;;;10.90;5.50;;;;;;;23.80;69.68;97932.91;1824129;79;21397;-83
2021/08/10 07:53:40;;;;;;;6.25;5.60;;;;;;;23.92;70.62;97942.66;1824249;78;20948;-82
2021/08/10 07:56:07;;;;;;;11.85;5.85;;;;;;;23.95;67.84;97932.94;1824244;78;20991;-83
2021/08/10 07:58:34;;;;;;;7.28;5.60;;;;;;;24.00;68.74;97929.85;1824181;78;20988;-83
2021/08/10 08:01:01;;;;;;;9.73;5.87;;;;;;;24.06;69.76;97920.31;1824143;78;21026;-82
2021/08/10 08:03:28;;;;;;;6.30;5.70;;;;;;;24.21;69.70;97910.05;1824280;79;20992;-83
2021/08/10 08:05:55;;;;;;;7.22;5.75;;;;;;;24.33;69.73;97910.83;1824128;79;21031;-83
2021/08/10 08:08:22;;;;;;;6.10;5.60;;;;;;;24.33;69.73;97910.83;1824404;78;21436;-82
2021/08/10 08:10:49;;;;;;;8.55;6.00;;;;;;;24.39;68.71;97909.79;1824591;78;21399;-83
2021/08/10 08:13:16;;;;;;;7.62;6.10;;;;;;;24.45;68.12;97909.72;1824157;79;21367;-82
2021/08/10 08:15:42;;;;;;;5.78;5.28;;;;;;;24.55;68.08;97903.48;1795255;79;20987;-83
2021/08/10 08:18:09;;;;;;;6.55;5.58;;;;;;;24.63;67.89;97911.80;1764354;81;21011;-83
2021/08/10 08:20:36;;;;;;;5.92;5.00;;;;;;;24.66;66.79;97907.44;1760980;80;20979;-83
2021/08/10 08:23:03;;;;;;;7.97;4.78;;;;;;;24.71;65.09;97905.20;1791884;80;21401;-83
2021/08/10 08:25:29;;;;;;;6.03;5.35;;;;;;;24.78;65.22;97897.35;1764196;81;21414;-83
2021/08/10 08:27:56;;;;;;;7.33;5.05;;;;;;;24.86;66.25;97894.84;1791872;80;20988;-83
2021/08/10 08:30:25;;;;;;;6.00;4.67;;;;;;;24.95;65.50;97899.08;1761262;81;21740;-82
2021/08/10 08:32:51;;;;;;;6.78;5.05;;;;;;;24.95;65.16;97894.50;1791745;80;21516;-82
2021/08/10 08:35:18;;;;;;;5.17;4.65;;;;;;;25.04;61.92;97903.16;1764195;81;21052;-81
2021/08/10 08:37:45;;;;;;;6.83;4.35;;;;;;;25.12;60.79;97907.88;1761075;80;20995;-81
2021/08/10 08:40:12;;;;;;;5.33;4.70;;;;;;;25.15;58.52;97902.18;1790535;78;21433;-82
2021/08/10 08:42:41;;;;;;;5.62;4.95;;;;;;;25.20;60.91;97903.09;1804881;79;21062;-82
2021/08/10 08:45:10;;;;;;;11.18;5.47;;;;;;;25.22;59.72;97899.77;1750938;80;20995;-82
2021/08/10 08:47:39;;;;;;;17.48;14.55;;;;;;;25.27;60.84;97895.26;1784190;80;20980;-82
2021/08/10 08:50:09;;;;;;;42.78;33.53;;;;;;;25.35;61.56;97902.69;1775812;81;21433;-82
2021/08/10 08:52:40;;;;;;;8.93;4.85;;;;;;;25.44;61.91;97902.70;1800296;79;20979;-82
2021/08/10 08:55:09;;;;;;;6.12;4.37;;;;;;;25.50;59.59;97899.93;1800254;79;21016;-82
2021/08/10 08:57:36;;;;;;;5.58;4.33;;;;;;;25.51;55.13;97898.05;1800312;79;21003;-82
2021/08/10 09:00:03;;;;;;;6.25;4.45;;;;;;;25.59;56.70;97894.66;1800258;79;21035;-82
2021/08/10 09:02:30;;;;;;;5.25;4.30;;;;;;;25.67;55.58;97898.38;1800119;79;20992;-83
2021/08/10 09:04:58;;;;;;;4.30;3.90;;;;;;;25.74;55.26;97895.92;1800356;79;20988;-83
2021/08/10 09:07:29;;;;;;;7.08;5.00;;;;;;;25.80;56.06;97888.58;1800213;79;21039;-83
2021/08/10 09:10:13;;;;;;;6.05;4.12;;;;;;;25.82;53.89;97887.91;1800221;80;20960;-83
2021/08/10 09:12:47;;;;;;;5.42;4.42;;;;;;;25.86;54.38;97884.41;1784465;80;21020;-81
2021/08/10 09:15:34;;;;;;;8.95;4.25;;;;;;;25.91;54.82;97886.17;1799979;79;21512;-83
2021/08/10 09:18:19;;;;;;;4.15;3.47;;;;;;;25.93;55.18;97888.27;1800348;79;21079;-83
2021/08/10 09:21:13;;;;;;;5.10;4.10;;;;;;;26.07;54.51;97894.24;1797203;79;21067;-83
2021/08/10 09:24:00;;;;;;;4.67;3.85;;;;;;;26.10;52.99;97882.58;1800308;79;21004;-82
2021/08/10 09:26:38;;;;;;;4.15;3.60;;;;;;;26.17;54.73;97880.62;1800514;79;20991;-83
2021/08/10 09:29:06;;;;;;;5.53;3.20;;;;;;;26.21;52.53;97876.61;1784554;80;20988;-83
2021/08/10 09:31:41;;;;;;;6.40;3.95;;;;;;;26.27;53.11;97871.96;1800606;79;20967;-83
2021/08/10 09:34:24;;;;;;;5.47;3.45;;;;;;;26.34;53.70;97876.30;1800497;79;21004;-83
2021/08/10 09:36:52;;;;;;;7.78;4.30;;;;;;;26.45;49.63;97883.42;1784692;80;21031;-83
2021/08/10 09:39:34;;;;;;;13.15;6.00;;;;;;;26.55;51.06;97874.71;1800486;79;20996;-83
2021/08/10 09:42:09;;;;;;;5.75;3.40;;;;;;;26.65;51.13;97881.44;1814085;78;21045;-83
2021/08/10 09:44:40;;;;;;;4.30;3.87;;;;;;;26.71;51.38;97884.94;1779581;80;20991;-83
2021/08/10 09:47:07;;;;;;;4.35;3.60;;;;;;;26.77;51.62;97882.09;1787604;80;21091;-83
2021/08/10 09:49:46;;;;;;;5.10;3.30;;;;;;;26.81;51.30;97883.51;1767169;81;21026;-83
2021/08/10 09:52:33;;;;;;;3.77;3.40;;;;;;;26.92;50.56;97877.50;1798332;79;20974;-83
2021/08/10 09:55:14;;;;;;;3.92;3.10;;;;;;;26.99;50.44;97874.05;1798405;80;21023;-83
2021/08/10 09:57:44;;;;;;;4.65;3.22;;;;;;;27.07;47.08;97871.08;1798451;80;21467;-83
2021/08/10 10:00:12;;;;;;;3.50;3.20;;;;;;;27.07;47.30;97871.08;1772104;80;20996;-83
2021/08/10 10:02:41;;;;;;;5.10;3.45;;;;;;;27.16;50.29;97875.59;1798710;80;22212;-81
2021/08/10 10:05:09;;;;;;;3.85;3.37;;;;;;;27.24;48.53;97872.09;1819567;79;21002;-80
2021/08/10 10:07:36;;;;;;;4.87;3.08;;;;;;;27.39;50.69;97876.47;1819839;79;21447;-81
2021/08/10 10:10:05;;;;;;;5.10;3.22;;;;;;;27.44;47.57;97880.11;1819877;79;21125;-83
2021/08/10 10:12:35;;;;;;;5.28;3.50;;;;;;;27.44;48.73;97880.11;1819869;79;21451;-82
2021/08/10 10:15:02;;;;;;;4.30;3.30;;;;;;;27.39;47.44;97869.17;1793041;79;20966;-83
2021/08/10 10:17:32;;;;;;;4.03;3.62;;;;;;;27.44;48.41;97870.05;1785938;80;21001;-83
2021/08/10 10:20:00;;;;;;;5.15;4.20;;;;;;;27.51;49.90;97872.52;1785782;80;21013;-82
2021/08/10 10:22:31;;;;;;;6.08;3.27;;;;;;;27.54;48.71;97873.55;1761867;80;21049;-83
2021/08/10 10:25:01;;;;;;;4.05;3.30;;;;;;;27.54;48.60;97873.55;1785872;80;21013;-82
2021/08/10 10:27:29;;;;;;;5.62;3.50;;;;;;;27.60;49.06;97876.71;1785870;80;21033;-82
2021/08/10 10:29:56;;;;;;;4.95;3.00;;;;;;;27.68;48.53;97872.67;1785801;80;21057;-82
2021/08/10 10:32:25;;;;;;;3.40;3.10;;;;;;;27.79;45.70;97871.57;1785881;80;21015;-82
2021/08/10 10:34:53;;;;;;;3.65;3.10;;;;;;;27.87;46.11;97860.75;1785865;80;21484;-82
2021/08/10 10:37:27;;;;;;;3.02;2.75;;;;;;;27.83;42.05;97878.91;1785847;80;21006;-82
2021/08/10 10:40:04;;;;;;;3.05;2.77;;;;;;;27.90;44.61;97864.49;1785889;80;21029;-82
2021/08/10 10:42:31;;;;;;;4.37;2.87;;;;;;;27.98;43.85;97862.86;1792263;80;21018;-82
2021/08/10 10:44:57;;;;;;;5.20;3.27;;;;;;;28.18;45.16;97867.55;1799767;78;20997;-82
2021/08/10 10:47:33;;;;;;;4.28;3.20;;;;;;;28.46;45.68;97866.04;1828069;78;20974;-83
2021/08/10 10:50:05;;;;;;;4.42;3.30;;;;;;;29.15;44.63;97861.52;1827843;78;21018;-82
2021/08/10 10:52:34;;;;;;;4.22;3.83;;;;;;;30.32;43.61;97861.84;1809443;78;20974;-82
2021/08/10 10:55:05;;;;;;;5.58;4.20;;;;;;;31.20;42.39;97869.13;1758208;82;20979;-83
2021/08/10 10:57:38;;;;;;;4.12;3.50;;;;;;;31.85;38.12;97859.23;1739849;82;20988;-82
2021/08/10 11:00:14;;;;;;;4.10;3.70;;;;;;;32.06;39.60;97859.06;1739731;82;21453;-82
2021/08/10 11:02:42;;;;;;;4.60;3.40;;;;;;;32.50;37.20;97860.98;1758378;81;21373;-82
2021/08/10 11:05:22;;;;;;;5.10;3.30;;;;;;;32.55;37.49;97856.32;1739811;82;21051;-82
2021/08/10 11:07:56;;;;;;;3.72;3.30;;;;;;;33.03;37.72;97853.63;1758435;82;20979;-83
2021/08/10 11:10:37;;;;;;;3.52;3.00;;;;;;;33.69;35.53;97858.64;1739325;82;21016;-83
2021/08/10 11:13:23;;;;;;;4.78;2.95;;;;;;;33.90;35.07;97849.52;1748021;79;20980;-82
2021/08/10 11:15:54;;;;;;;3.75;3.30;;;;;;;34.67;35.43;97843.78;1769843;81;20989;-82
2021/08/10 11:18:23;;;;;;;4.72;3.00;;;;;;;35.50;34.30;97849.63;1773617;81;21036;-82
2021/08/10 11:21:01;;;;;;;3.22;2.60;;;;;;;36.30;34.87;97849.85;1795525;80;21031;-83
2021/08/10 11:23:32;;;;;;;2.98;2.77;;;;;;;36.59;31.28;97858.69;1770799;81;21030;-83
2021/08/10 11:26:05;;;;;;;3.37;2.65;;;;;;;36.37;29.83;97852.08;1795218;80;21000;-82
2021/08/10 11:28:38;;;;;;;2.72;2.50;;;;;;;36.90;26.57;97852.95;1772930;81;21051;-83
2021/08/10 11:31:11;;;;;;;5.05;2.62;;;;;;;37.31;28.05;97843.11;1795709;80;20932;-82
2021/08/10 11:33:41;;;;;;;4.08;2.87;;;;;;;37.74;26.17;97845.67;1772974;81;21056;-82
2021/08/10 11:36:16;;;;;;;4.45;3.02;;;;;;;38.12;27.29;97864.09;1795479;80;21002;-83
2021/08/10 11:38:53;;;;;;;13.00;11.68;;;;;;;38.11;24.47;97845.77;1795691;80;21015;-82
2021/08/10 11:41:39;;;;;;;6.58;5.55;;;;;;;38.47;25.01;97852.13;1795289;80;21452;-82
2021/08/10 11:44:20;;;;;;;3.95;2.40;;;;;;;38.27;25.23;97849.88;1790600;80;20964;-82